createdAt,value
2023-01-08T00:01:57.950Z,97222.91
2023-01-08T00:04:24.423Z,97219.69
2023-01-08T00:06:50.934Z,97218.00
2023-01-08T00:09:17.421Z,97215.34
2023-01-08T00:11:44.423Z,97229.69
2023-01-08T00:14:11.335Z,97230.66
2023-01-08T00:16:37.817Z,97225.03
2023-01-08T00:19:04.314Z,97211.91
2023-01-08T00:21:30.811Z,97206.22
2023-01-08T00:23:57.294Z,97199.47
2023-01-08T00:26:23.770Z,97208.00
2023-01-08T00:28:50.312Z,97207.91
2023-01-08T00:31:16.852Z,97207.09
2023-01-08T00:33:43.367Z,97214.94
2023-01-08T00:36:11.547Z,97215.31
2023-01-08T00:38:38.006Z,97217.78
2023-01-08T00:41:04.734Z,97216.56
2023-01-08T00:43:31.266Z,97212.28
2023-01-08T00:45:57.970Z,97201.31
2023-01-08T00:48:25.076Z,97195.88
2023-01-08T00:50:51.964Z,97178.16
2023-01-08T00:53:19.033Z,97183.50
2023-01-08T00:55:45.503Z,97182.16
2023-01-08T00:58:12.414Z,97181.81
2023-01-08T01:00:38.908Z,97189.47
2023-01-08T01:03:05.418Z,97174.50
2023-01-08T01:05:31.907Z,97178.94
2023-01-08T01:07:58.397Z,97172.25
2023-01-08T01:10:25.154Z,97163.91
2023-01-08T01:12:51.674Z,97162.38
2023-01-08T01:15:18.387Z,97152.06
2023-01-08T01:17:45.406Z,97161.06
2023-01-08T01:20:14.398Z,97162.56
2023-01-08T01:22:40.981Z,97168.97
2023-01-08T01:25:07.753Z,97170.56
2023-01-08T01:27:34.233Z,97172.63
2023-01-08T01:30:00.893Z,97166.66
2023-01-08T01:32:27.414Z,97167.91
2023-01-08T01:34:53.879Z,97165.28
2023-01-08T01:37:20.481Z,97169.50
2023-01-08T01:39:47.337Z,97157.78
2023-01-08T01:42:33.092Z,97147.81
2023-01-08T01:44:59.556Z,97148.69
2023-01-08T01:47:38.609Z,97150.31
2023-01-08T01:50:19.625Z,97147.25
2023-01-08T01:52:59.630Z,97147.19
2023-01-08T01:55:26.286Z,97154.22
2023-01-08T01:58:08.720Z,97147.97
2023-01-08T02:00:35.253Z,97159.47
2023-01-08T02:03:01.800Z,97159.09
2023-01-08T02:05:34.023Z,97157.16
2023-01-08T02:08:12.388Z,97157.59
2023-01-08T02:10:49.225Z,97159.91
2023-01-08T02:13:23.052Z,97151.91
2023-01-08T02:15:58.577Z,97148.06
2023-01-08T02:18:29.419Z,97162.66
2023-01-08T02:21:03.694Z,97162.50
2023-01-08T02:23:54.526Z,97155.81
2023-01-08T02:26:29.249Z,97153.34
2023-01-08T02:28:59.803Z,97156.09
2023-01-08T02:31:27.223Z,97150.88
2023-01-08T02:33:53.698Z,97162.44
2023-01-08T02:36:31.311Z,97159.63
2023-01-08T02:39:04.345Z,97162.06
2023-01-08T02:41:44.018Z,97160.19
2023-01-08T02:44:10.519Z,97152.97
2023-01-08T02:46:37.012Z,97161.06
2023-01-08T02:49:05.925Z,97151.97
2023-01-08T02:51:40.149Z,97150.47
2023-01-08T02:54:08.517Z,97157.16
2023-01-08T02:56:36.837Z,97154.22
2023-01-08T02:59:03.839Z,97148.78
2023-01-08T03:01:30.454Z,97144.84
2023-01-08T03:03:58.322Z,97148.25
2023-01-08T03:06:24.852Z,97140.84
2023-01-08T03:08:51.883Z,97141.22
2023-01-08T03:11:19.820Z,97144.13
2023-01-08T03:14:12.429Z,97142.81
2023-01-08T03:16:40.976Z,97136.28
2023-01-08T03:19:13.507Z,97144.06
2023-01-08T03:21:39.995Z,97133.88
2023-01-08T03:24:06.783Z,97142.47
2023-01-08T03:26:33.456Z,97128.66
2023-01-08T03:28:59.913Z,97133.44
2023-01-08T03:31:27.527Z,97132.38
2023-01-08T03:33:54.006Z,97128.66
2023-01-08T03:36:22.285Z,97122.84
2023-01-08T03:38:52.592Z,97127.56
2023-01-08T03:41:19.258Z,97122.56
2023-01-08T03:43:45.734Z,97113.38
2023-01-08T03:46:16.830Z,97109.75
2023-01-08T03:48:43.449Z,97117.03
2023-01-08T03:51:10.436Z,97109.59
2023-01-08T03:53:36.987Z,97104.06
2023-01-08T03:56:03.561Z,97115.56
2023-01-08T03:58:30.058Z,97100.13
2023-01-08T04:00:56.555Z,97100.03
2023-01-08T04:03:24.676Z,97086.56
2023-01-08T04:05:51.176Z,97086.50
2023-01-08T04:08:17.672Z,97091.38
2023-01-08T04:10:44.149Z,97091.22
2023-01-08T04:13:10.644Z,97087.38
2023-01-08T04:15:37.183Z,97082.56
2023-01-08T04:18:03.745Z,97082.56
2023-01-08T04:20:30.244Z,97074.56
2023-01-08T04:22:56.780Z,97083.66
2023-01-08T04:25:23.251Z,97068.13
2023-01-08T04:27:49.734Z,97079.16
2023-01-08T04:30:16.223Z,97076.09
2023-01-08T04:32:42.714Z,97077.56
2023-01-08T04:35:09.534Z,97074.28
2023-01-08T04:37:36.006Z,97069.56
2023-01-08T04:40:02.478Z,97073.78
2023-01-08T04:42:28.972Z,97075.88
2023-01-08T04:44:55.479Z,97075.81
2023-01-08T04:47:21.951Z,97073.56
2023-01-08T04:49:48.480Z,97073.78
2023-01-08T04:52:14.981Z,97080.81
2023-01-08T04:54:41.511Z,97075.72
2023-01-08T04:57:07.999Z,97068.63
2023-01-08T04:59:34.490Z,97070.81
2023-01-08T05:02:01.103Z,97077.94
2023-01-08T05:04:27.734Z,97079.16
2023-01-08T05:06:54.210Z,97072.50
2023-01-08T05:09:20.728Z,97070.44
2023-01-08T05:11:47.198Z,97064.47
2023-01-08T05:14:13.687Z,97067.31
2023-01-08T05:16:40.206Z,97066.56
2023-01-08T05:19:06.701Z,97066.16
2023-01-08T05:21:33.217Z,97063.81
2023-01-08T05:23:59.976Z,97064.25
2023-01-08T05:26:26.459Z,97071.09
2023-01-08T05:28:52.999Z,97062.28
2023-01-08T05:31:19.546Z,97059.97
2023-01-08T05:33:46.450Z,97065.38
2023-01-08T05:36:12.956Z,97060.47
2023-01-08T05:38:39.497Z,97061.19
2023-01-08T05:41:06.182Z,97063.25
2023-01-08T05:43:32.659Z,97066.88
2023-01-08T05:45:59.832Z,97070.88
2023-01-08T05:48:27.331Z,97070.53
2023-01-08T05:50:53.822Z,97081.19
2023-01-08T05:53:20.369Z,97071.25
2023-01-08T05:55:46.862Z,97075.59
2023-01-08T05:58:13.483Z,97071.00
2023-01-08T06:00:40.023Z,97073.03
2023-01-08T06:03:06.553Z,97073.56
2023-01-08T06:05:33.070Z,97086.50
2023-01-08T06:07:59.629Z,97069.94
2023-01-08T06:10:26.224Z,97070.00
2023-01-08T06:12:52.707Z,97066.81
2023-01-08T06:15:19.199Z,97073.84
2023-01-08T06:17:45.686Z,97071.88
2023-01-08T06:20:12.160Z,97081.25
2023-01-08T06:22:38.644Z,97077.03
2023-01-08T06:25:05.566Z,97091.28
2023-01-08T06:27:32.022Z,97082.84
2023-01-08T06:29:58.788Z,97086.50
2023-01-08T06:32:25.250Z,97095.84
2023-01-08T06:34:51.757Z,97097.09
2023-01-08T06:37:18.207Z,97101.38
2023-01-08T06:39:44.681Z,97106.09
2023-01-08T06:42:11.143Z,97108.94
2023-01-08T06:44:37.799Z,97099.13
2023-01-08T06:47:04.268Z,97110.00
2023-01-08T06:49:30.768Z,97104.13
2023-01-08T06:51:57.421Z,97106.25
2023-01-08T06:54:23.906Z,97120.78
2023-01-08T06:56:54.054Z,97112.50
2023-01-08T06:59:20.997Z,97114.91
2023-01-08T07:01:47.565Z,97114.09
2023-01-08T07:04:14.199Z,97121.78
2023-01-08T07:06:40.657Z,97108.34
2023-01-08T07:09:07.201Z,97127.44
2023-01-08T07:11:33.746Z,97121.84
2023-01-08T07:14:00.306Z,97120.19
2023-01-08T07:16:26.909Z,97130.66
2023-01-08T07:18:53.438Z,97130.47
2023-01-08T07:21:22.530Z,97136.88
2023-01-08T07:23:52.004Z,97126.56
2023-01-08T07:26:18.482Z,97135.72
2023-01-08T07:28:44.974Z,97137.34
2023-01-08T07:31:11.535Z,97139.28
2023-01-08T07:33:38.067Z,97129.78
2023-01-08T07:36:04.928Z,97123.38
2023-01-08T07:38:31.419Z,97135.16
2023-01-08T07:40:58.944Z,97124.97
2023-01-08T07:43:26.135Z,97120.59
2023-01-08T07:45:52.638Z,97118.72
2023-01-08T07:48:19.132Z,97116.31
2023-01-08T07:50:45.700Z,97125.06
2023-01-08T07:53:13.520Z,97123.19
2023-01-08T07:55:40.053Z,97129.13
2023-01-08T07:58:13.253Z,97133.13
2023-01-08T08:00:39.767Z,97116.56
2023-01-08T08:03:07.645Z,97115.41
2023-01-08T08:05:34.248Z,97118.66
2023-01-08T08:08:01.563Z,97125.34
2023-01-08T08:10:28.257Z,97125.31
2023-01-08T08:12:54.776Z,97115.78
2023-01-08T08:15:21.253Z,97114.25
2023-01-08T08:17:47.802Z,97115.53
2023-01-08T08:20:14.602Z,97106.41
2023-01-08T08:22:41.126Z,97104.16
2023-01-08T08:25:08.009Z,97107.25
2023-01-08T08:27:34.500Z,97112.28
2023-01-08T08:30:01.004Z,97099.06
2023-01-08T08:32:27.480Z,97098.97
2023-01-08T08:34:53.990Z,97090.63
2023-01-08T08:37:20.460Z,97089.91
2023-01-08T08:39:47.256Z,97076.91
2023-01-08T08:42:13.747Z,97077.78
2023-01-08T08:44:42.645Z,97078.66
2023-01-08T08:47:09.526Z,97076.25
2023-01-08T08:49:39.901Z,97070.66
2023-01-08T08:52:06.413Z,97075.25
2023-01-08T08:54:32.960Z,97065.84
2023-01-08T08:56:59.452Z,97062.53
2023-01-08T08:59:26.008Z,97056.63
2023-01-08T09:01:52.576Z,97066.53
2023-01-08T09:04:19.119Z,97059.41
2023-01-08T09:06:45.606Z,97062.53
2023-01-08T09:09:12.111Z,97064.41
2023-01-08T09:11:38.627Z,97067.16
2023-01-08T09:14:05.131Z,97063.59
2023-01-08T09:16:33.074Z,97072.41
2023-01-08T09:18:59.653Z,97070.94
2023-01-08T09:21:26.131Z,97076.00
2023-01-08T09:23:52.664Z,97076.09
2023-01-08T09:26:19.157Z,97077.31
2023-01-08T09:28:45.687Z,97075.00
2023-01-08T09:31:12.243Z,97078.41
2023-01-08T09:33:38.743Z,97070.13
2023-01-08T09:36:05.468Z,97074.13
2023-01-08T09:38:31.948Z,97082.06
2023-01-08T09:41:00.290Z,97070.56
2023-01-08T09:43:27.501Z,97071.44
2023-01-08T09:45:56.080Z,97070.66
2023-01-08T09:48:25.020Z,97054.22
2023-01-08T09:50:51.517Z,97055.03
2023-01-08T09:53:18.096Z,97055.03
2023-01-08T09:55:46.580Z,97055.75
2023-01-08T09:58:33.065Z,97055.22
2023-01-08T10:01:00.673Z,97052.09
2023-01-08T10:03:31.580Z,97051.81
2023-01-08T10:05:58.057Z,97052.19
2023-01-08T10:08:24.571Z,97054.22
2023-01-08T10:10:51.062Z,97055.75
2023-01-08T10:13:17.534Z,97058.00
2023-01-08T10:15:44.020Z,97045.06
2023-01-08T10:18:12.067Z,97027.47
2023-01-08T10:20:39.337Z,97036.16
2023-01-08T10:23:13.624Z,97046.38
2023-01-08T10:25:57.228Z,97037.31
2023-01-08T10:28:31.275Z,97043.00
2023-01-08T10:31:14.838Z,97039.50
2023-01-08T10:33:45.535Z,97035.56
2023-01-08T10:36:23.309Z,97028.69
2023-01-08T10:38:57.369Z,97029.50
2023-01-08T10:41:23.845Z,97026.81
2023-01-08T10:44:00.774Z,97028.56
2023-01-08T10:46:35.867Z,97013.34
2023-01-08T10:49:04.099Z,97013.34
2023-01-08T10:51:31.411Z,97007.81
2023-01-08T10:54:14.937Z,96996.56
2023-01-08T10:56:42.975Z,96992.84
2023-01-08T10:59:19.779Z,97001.38
2023-01-08T11:01:47.359Z,96986.47
2023-01-08T11:04:22.151Z,96976.56
2023-01-08T11:06:48.698Z,96968.31
2023-01-08T11:09:25.593Z,96953.13
2023-01-08T11:11:52.083Z,96955.03
2023-01-08T11:14:24.232Z,96946.56
2023-01-08T11:16:50.708Z,96940.72
2023-01-08T11:19:23.955Z,96927.34
2023-01-08T11:21:58.207Z,96934.09
2023-01-08T11:24:27.007Z,96936.03
2023-01-08T11:26:56.395Z,96926.78
2023-01-08T11:29:29.355Z,96931.88
2023-01-08T11:32:18.295Z,96921.19
2023-01-08T11:34:58.907Z,96916.72
2023-01-08T11:37:52.877Z,96922.97
2023-01-08T11:40:42.395Z,96913.88
2023-01-08T11:43:21.432Z,96908.19
2023-01-08T11:45:58.622Z,96910.53
2023-01-08T11:49:03.239Z,96896.22
2023-01-08T11:52:00.619Z,96890.72
2023-01-08T11:54:41.242Z,96881.06
2023-01-08T11:57:18.785Z,96870.78
2023-01-08T12:00:08.844Z,96863.75
2023-01-08T12:02:54.730Z,96863.63
2023-01-08T12:05:42.458Z,96854.19
2023-01-08T12:08:24.091Z,96862.41
2023-01-08T12:10:59.434Z,96858.59
2023-01-08T12:13:45.430Z,96844.09
2023-01-08T12:16:36.320Z,96850.47
2023-01-08T12:19:39.856Z,96834.72
2023-01-08T12:22:32.924Z,96830.69
2023-01-08T12:25:20.649Z,96832.00
2023-01-08T12:28:07.876Z,96830.25
2023-01-08T12:31:00.583Z,96816.28
2023-01-08T12:33:35.599Z,96815.16
2023-01-08T12:36:05.379Z,96811.72
2023-01-08T12:38:39.112Z,96805.13
2023-01-08T12:41:26.785Z,96796.69
2023-01-08T12:44:00.656Z,96797.13
2023-01-08T12:46:29.497Z,96805.78
2023-01-08T12:48:56.958Z,96802.53
2023-01-08T12:51:29.809Z,96797.38
2023-01-08T12:54:08.223Z,96791.50
2023-01-08T12:56:46.195Z,96795.47
2023-01-08T12:59:16.002Z,96794.31
2023-01-08T13:02:10.473Z,96794.97
2023-01-08T13:04:44.340Z,96780.59
2023-01-08T13:07:22.636Z,96787.66
2023-01-08T13:10:02.775Z,96791.13
2023-01-08T13:12:36.741Z,96782.91
2023-01-08T13:15:03.853Z,96778.47
2023-01-08T13:17:30.839Z,96780.84
2023-01-08T13:20:05.586Z,96774.47
2023-01-08T13:22:35.754Z,96769.19
2023-01-08T13:25:17.394Z,96772.34
2023-01-08T13:27:44.954Z,96754.28
2023-01-08T13:30:33.246Z,96753.84
2023-01-08T13:32:59.815Z,96742.41
2023-01-08T13:35:27.384Z,96750.25
2023-01-08T13:38:17.041Z,96745.16
2023-01-08T13:40:43.382Z,96742.75
2023-01-08T13:43:18.452Z,96743.91
2023-01-08T13:46:09.651Z,96735.66
2023-01-08T13:48:48.717Z,96725.47
2023-01-08T13:51:38.128Z,96725.03
2023-01-08T13:54:13.597Z,96728.22
2023-01-08T13:56:40.979Z,96730.13
2023-01-08T13:59:11.618Z,96722.66
2023-01-08T14:01:38.145Z,96715.50
2023-01-08T14:04:04.699Z,96715.06
2023-01-08T14:06:31.516Z,96707.50
2023-01-08T14:09:03.040Z,96713.84
2023-01-08T14:11:32.791Z,96711.88
2023-01-08T14:13:59.287Z,96720.94
2023-01-08T14:16:25.827Z,96711.03
2023-01-08T14:19:00.580Z,96711.47
2023-01-08T14:21:27.119Z,96716.63
2023-01-08T14:23:54.095Z,96709.44
2023-01-08T14:26:32.276Z,96704.25
2023-01-08T14:28:58.773Z,96707.41
2023-01-08T14:31:26.784Z,96706.56
2023-01-08T14:33:56.967Z,96703.38
2023-01-08T14:36:23.479Z,96712.34
2023-01-08T14:38:52.784Z,96709.88
2023-01-08T14:41:46.458Z,96712.22
2023-01-08T14:44:13.763Z,96716.13
2023-01-08T14:46:40.247Z,96715.25
2023-01-08T14:49:06.722Z,96708.97
2023-01-08T14:51:33.217Z,96709.69
2023-01-08T14:54:01.775Z,96700.56
2023-01-08T14:56:30.702Z,96700.47
2023-01-08T14:58:58.202Z,96693.31
2023-01-08T15:01:28.918Z,96694.06
2023-01-08T15:04:14.552Z,96689.63
2023-01-08T15:06:41.802Z,96701.44
2023-01-08T15:09:23.743Z,96701.44
2023-01-08T15:11:59.235Z,96697.88
2023-01-08T15:14:27.104Z,96695.50
2023-01-08T15:16:55.190Z,96697.47
2023-01-08T15:19:26.071Z,96692.72
2023-01-08T15:21:57.736Z,96698.56
2023-01-08T15:24:28.919Z,96691.34
2023-01-08T15:26:55.409Z,96701.97
2023-01-08T15:29:33.371Z,96690.06
2023-01-08T15:32:15.137Z,96692.75
2023-01-08T15:34:45.399Z,96685.59
2023-01-08T15:37:11.957Z,96682.81
2023-01-08T15:39:38.443Z,96689.09
2023-01-08T15:42:40.837Z,96673.00
2023-01-08T15:45:12.544Z,96675.28
2023-01-08T15:47:39.054Z,96662.59
2023-01-08T15:50:06.383Z,96662.97
2023-01-08T15:52:32.881Z,96665.31
2023-01-08T15:54:59.449Z,96661.38
2023-01-08T15:57:26.287Z,96655.41
2023-01-08T15:59:52.859Z,96659.25
2023-01-08T16:02:19.484Z,96656.56
2023-01-08T16:04:46.024Z,96653.78
2023-01-08T16:07:12.789Z,96663.50
2023-01-08T16:09:39.285Z,96667.78
2023-01-08T16:12:06.117Z,96670.97
2023-01-08T16:14:34.443Z,96667.72
2023-01-08T16:17:01.471Z,96663.44
2023-01-08T16:19:29.626Z,96655.94
2023-01-08T16:21:56.273Z,96666.50
2023-01-08T16:24:22.744Z,96661.34
2023-01-08T16:26:49.229Z,96667.59
2023-01-08T16:29:15.699Z,96658.53
2023-01-08T16:31:45.949Z,96656.53
2023-01-08T16:34:12.454Z,96672.75
2023-01-08T16:36:38.963Z,96674.28
2023-01-08T16:39:05.825Z,96683.28
2023-01-08T16:41:32.400Z,96685.56
2023-01-08T16:43:58.900Z,96683.16
2023-01-08T16:46:26.734Z,96692.06
2023-01-08T16:48:53.605Z,96691.34
2023-01-08T16:51:21.209Z,96690.13
2023-01-08T16:53:47.813Z,96684.16
2023-01-08T16:56:14.286Z,96684.97
2023-01-08T16:58:40.751Z,96689.84
2023-01-08T17:01:08.653Z,96683.94
2023-01-08T17:03:35.206Z,96682.50
2023-01-08T17:06:06.339Z,96681.84
2023-01-08T17:08:32.998Z,96685.69
2023-01-08T17:10:59.490Z,96687.56
2023-01-08T17:13:26.061Z,96690.50
2023-01-08T17:15:53.175Z,96683.44
2023-01-08T17:18:19.980Z,96679.28
2023-01-08T17:20:53.095Z,96677.78
2023-01-08T17:23:19.593Z,96674.31
2023-01-08T17:25:46.164Z,96678.53
2023-01-08T17:28:12.643Z,96670.88
2023-01-08T17:30:39.113Z,96679.38
2023-01-08T17:33:05.609Z,96679.16
2023-01-08T17:35:32.081Z,96678.78
2023-01-08T17:37:58.570Z,96672.50
2023-01-08T17:40:25.033Z,96684.75
2023-01-08T17:42:51.553Z,96685.00
2023-01-08T17:45:18.051Z,96676.00
2023-01-08T17:47:44.531Z,96671.00
2023-01-08T17:50:11.416Z,96666.66
2023-01-08T17:52:38.100Z,96681.94
2023-01-08T17:55:05.009Z,96665.22
2023-01-08T17:57:31.690Z,96657.72
2023-01-08T17:59:59.620Z,96665.66
2023-01-08T18:02:26.344Z,96659.59
2023-01-08T18:04:52.872Z,96653.22
2023-01-08T18:07:19.566Z,96644.97
2023-01-08T18:09:46.068Z,96640.78
2023-01-08T18:12:12.582Z,96637.75
2023-01-08T18:14:39.726Z,96638.84
2023-01-08T18:17:06.320Z,96646.78
2023-01-08T18:19:32.868Z,96636.94
2023-01-08T18:21:59.574Z,96645.19
2023-01-08T18:24:26.910Z,96644.03
2023-01-08T18:26:53.416Z,96643.44
2023-01-08T18:29:19.964Z,96643.00
2023-01-08T18:31:46.619Z,96645.03
2023-01-08T18:34:14.885Z,96645.56
2023-01-08T18:36:41.698Z,96641.19
2023-01-08T18:39:08.220Z,96640.00
2023-01-08T18:41:52.967Z,96633.13
2023-01-08T18:44:19.488Z,96630.81
2023-01-08T18:46:48.992Z,96630.38
2023-01-08T18:49:15.576Z,96627.06
2023-01-08T18:51:42.299Z,96625.25
2023-01-08T18:54:11.026Z,96613.56
2023-01-08T18:56:37.528Z,96605.66
2023-01-08T18:59:04.522Z,96607.63
2023-01-08T19:01:31.115Z,96600.31
2023-01-08T19:03:57.710Z,96599.19
2023-01-08T19:06:24.268Z,96604.72
2023-01-08T19:08:51.488Z,96598.91
2023-01-08T19:11:17.948Z,96593.19
2023-01-08T19:13:44.460Z,96596.09
2023-01-08T19:16:12.492Z,96590.06
2023-01-08T19:18:39.185Z,96583.41
2023-01-08T19:21:06.845Z,96584.09
2023-01-08T19:23:33.394Z,96581.63
2023-01-08T19:25:59.955Z,96586.41
2023-01-08T19:28:26.485Z,96585.63
2023-01-08T19:30:56.972Z,96574.97
2023-01-08T19:33:23.471Z,96571.16
2023-01-08T19:35:49.958Z,96561.91
2023-01-08T19:38:17.062Z,96557.06
2023-01-08T19:40:43.529Z,96557.88
2023-01-08T19:43:29.668Z,96559.47
2023-01-08T19:45:56.269Z,96557.19
2023-01-08T19:48:23.159Z,96548.47
2023-01-08T19:50:49.930Z,96546.50
2023-01-08T19:53:16.478Z,96542.41
2023-01-08T19:55:45.273Z,96537.81
2023-01-08T19:58:12.154Z,96538.19
2023-01-08T20:00:39.487Z,96532.75
2023-01-08T20:03:06.349Z,96538.78
2023-01-08T20:05:32.948Z,96535.97
2023-01-08T20:07:59.416Z,96541.25
2023-01-08T20:10:25.883Z,96537.81
2023-01-08T20:12:52.353Z,96542.06
2023-01-08T20:15:21.781Z,96533.34
2023-01-08T20:17:48.327Z,96530.81
2023-01-08T20:20:14.923Z,96531.03
2023-01-08T20:22:41.383Z,96536.75
2023-01-08T20:25:08.283Z,96519.66
2023-01-08T20:27:34.753Z,96515.44
2023-01-08T20:30:01.636Z,96505.91
2023-01-08T20:32:28.151Z,96510.13
2023-01-08T20:34:54.643Z,96493.16
2023-01-08T20:37:21.119Z,96495.88
2023-01-08T20:39:47.625Z,96499.03
2023-01-08T20:42:17.646Z,96488.69
2023-01-08T20:44:48.596Z,96484.03
2023-01-08T20:47:15.585Z,96495.88
2023-01-08T20:49:42.063Z,96487.03
2023-01-08T20:52:08.525Z,96493.34
2023-01-08T20:54:35.237Z,96503.75
2023-01-08T20:57:01.844Z,96493.91
2023-01-08T20:59:28.832Z,96497.94
2023-01-08T21:01:55.736Z,96494.53
2023-01-08T21:04:22.449Z,96487.88
2023-01-08T21:06:49.021Z,96487.50
2023-01-08T21:09:17.611Z,96485.13
2023-01-08T21:11:44.163Z,96480.41
2023-01-08T21:14:10.656Z,96472.44
2023-01-08T21:16:38.641Z,96457.56
2023-01-08T21:19:05.248Z,96470.75
2023-01-08T21:21:35.192Z,96464.44
2023-01-08T21:24:04.276Z,96468.03
2023-01-08T21:26:32.154Z,96454.25
2023-01-08T21:28:59.622Z,96455.22
2023-01-08T21:31:28.293Z,96442.59
2023-01-08T21:33:56.015Z,96442.53
2023-01-08T21:36:23.478Z,96440.13
2023-01-08T21:38:50.034Z,96429.63
2023-01-08T21:41:39.763Z,96432.44
2023-01-08T21:44:28.934Z,96419.44
2023-01-08T21:46:55.397Z,96425.53
2023-01-08T21:49:21.870Z,96418.81
2023-01-08T21:52:07.300Z,96413.44
2023-01-08T21:54:33.769Z,96413.72
2023-01-08T21:57:00.248Z,96402.44
2023-01-08T21:59:26.742Z,96405.97
2023-01-08T22:01:53.281Z,96402.91
2023-01-08T22:04:19.932Z,96387.31
2023-01-08T22:06:46.435Z,96388.19
2023-01-08T22:09:13.713Z,96384.56
2023-01-08T22:11:40.194Z,96377.63
2023-01-08T22:14:06.937Z,96377.22
2023-01-08T22:16:33.508Z,96377.22
2023-01-08T22:19:00.120Z,96373.72
2023-01-08T22:21:26.608Z,96368.19
2023-01-08T22:23:53.146Z,96365.94
2023-01-08T22:26:20.185Z,96360.03
2023-01-08T22:28:46.676Z,96351.38
2023-01-08T22:31:13.401Z,96334.09
2023-01-08T22:33:39.942Z,96329.41
2023-01-08T22:36:08.231Z,96342.03
2023-01-08T22:38:34.777Z,96337.41
2023-01-08T22:41:01.257Z,96336.56
2023-01-08T22:43:27.736Z,96344.09
2023-01-08T22:45:54.918Z,96339.38
2023-01-08T22:48:21.402Z,96332.69
2023-01-08T22:50:47.982Z,96324.91
2023-01-08T22:53:14.617Z,96326.44
2023-01-08T22:55:48.495Z,96318.59
2023-01-08T22:58:15.561Z,96320.19
2023-01-08T23:00:42.074Z,96323.69
2023-01-08T23:03:08.644Z,96311.81
2023-01-08T23:05:35.153Z,96310.66
2023-01-08T23:08:01.683Z,96309.47
2023-01-08T23:10:28.403Z,96293.03
2023-01-08T23:12:54.886Z,96297.75
2023-01-08T23:15:21.467Z,96293.91
2023-01-08T23:17:52.440Z,96286.41
2023-01-08T23:20:19.650Z,96291.53
2023-01-08T23:22:46.917Z,96285.22
2023-01-08T23:25:13.385Z,96265.22
2023-01-08T23:27:39.854Z,96275.81
2023-01-08T23:30:06.722Z,96268.63
2023-01-08T23:32:33.197Z,96273.00
2023-01-08T23:34:59.705Z,96267.41
2023-01-08T23:37:26.197Z,96262.78
2023-01-08T23:39:52.702Z,96273.81
2023-01-08T23:42:19.179Z,96270.69
2023-01-08T23:44:45.657Z,96277.00
2023-01-08T23:47:12.135Z,96272.66
2023-01-08T23:49:38.861Z,96268.31
2023-01-08T23:52:05.330Z,96262.78
2023-01-08T23:54:31.919Z,96258.06
2023-01-08T23:56:58.396Z,96254.19
2023-01-08T23:59:25.134Z,96255.00
